AEA5038 LEMD-LEMG
Flight info
| Callsign | AEA5038 |
|---|---|
| Flight time | 0h 46m |
| Altitude | 31000 |
| Route | VTB N10 CRISA N864 VULPE |
| Aircraft | B738/M-SDE2E3FGHIRWXY/LB1 |
Departure
| Time | 2026-04-30 18:15 |
|---|---|
| Airport | Adolfo Suárez Madrid–Barajas Airport (LEMD) |
Arrival
| Time | 2026-04-30 19:02 |
|---|---|
| Airport | Málaga-Costa del Sol Airport (LEMG) |
| Time | Latitude | Longitude | Altitude | Speed | Heading |
|---|---|---|---|---|---|
| 2026-04-30 17:44 | 40.47311 | -3.57015 | 1988 ft | 0 kts | 244° |
| 2026-04-30 17:59 | 40.47331 | -3.56942 | 1986 ft | 4 kts | 316° |
| 2026-04-30 18:00 | 40.47263 | -3.56918 | 1986 ft | 1 kts | 11° |
| 2026-04-30 18:03 | 40.47317 | -3.56926 | 1987 ft | 10 kts | 338° |
| 2026-04-30 18:04 | 40.47553 | -3.57239 | 1996 ft | 18 kts | 321° |
| 2026-04-30 18:05 | 40.47922 | -3.57415 | 2003 ft | 15 kts | 332° |
| 2026-04-30 18:06 | 40.48236 | -3.57732 | 1994 ft | 14 kts | 321° |
| 2026-04-30 18:07 | 40.48563 | -3.58022 | 2001 ft | 13 kts | 328° |
| 2026-04-30 18:08 | 40.48824 | -3.58049 | 2002 ft | 14 kts | 0° |
| 2026-04-30 18:09 | 40.49217 | -3.58045 | 2002 ft | 13 kts | 22° |
| 2026-04-30 18:10 | 40.49261 | -3.57584 | 1986 ft | 8 kts | 66° |
| 2026-04-30 18:11 | 40.49262 | -3.57580 | 1986 ft | 0 kts | 65° |
| 2026-04-30 18:13 | 40.49277 | -3.57516 | 1984 ft | 6 kts | 84° |
| 2026-04-30 18:14 | 40.49326 | -3.57449 | 1982 ft | 4 kts | 356° |
| 2026-04-30 18:15 | 40.50586 | -3.57462 | 1994 ft | 150 kts | 359° |
| 2026-04-30 18:15 | 40.54110 | -3.57595 | 3647 ft | 194 kts | 356° |
| 2026-04-30 18:16 | 40.56863 | -3.58509 | 4458 ft | 220 kts | 307° |
| 2026-04-30 18:16 | 40.58150 | -3.62142 | 5714 ft | 229 kts | 321° |
| 2026-04-30 18:17 | 40.59510 | -3.63248 | 6466 ft | 231 kts | 325° |
| 2026-04-30 18:17 | 40.60794 | -3.64548 | 7165 ft | 234 kts | 320° |
| 2026-04-30 18:17 | 40.63358 | -3.67248 | 8650 ft | 238 kts | 319° |
| 2026-04-30 18:18 | 40.64564 | -3.68735 | 9374 ft | 239 kts | 300° |
| 2026-04-30 18:18 | 40.65055 | -3.70785 | 10054 ft | 238 kts | 270° |
| 2026-04-30 18:18 | 40.64746 | -3.72948 | 10531 ft | 247 kts | 243° |
| 2026-04-30 18:18 | 40.63815 | -3.74867 | 11205 ft | 250 kts | 233° |
| 2026-04-30 18:19 | 40.62501 | -3.76415 | 11666 ft | 266 kts | 207° |
| 2026-04-30 18:19 | 40.60708 | -3.77371 | 11879 ft | 291 kts | 201° |
| 2026-04-30 18:19 | 40.58720 | -3.78298 | 12069 ft | 315 kts | 200° |
| 2026-04-30 18:19 | 40.56571 | -3.79280 | 12237 ft | 338 kts | 200° |
| 2026-04-30 18:20 | 40.54309 | -3.80320 | 12397 ft | 358 kts | 200° |
| 2026-04-30 18:20 | 40.51878 | -3.81450 | 12765 ft | 371 kts | 200° |
| 2026-04-30 18:20 | 40.49427 | -3.82601 | 13384 ft | 376 kts | 200° |
| 2026-04-30 18:20 | 40.46957 | -3.83770 | 14078 ft | 378 kts | 200° |
| 2026-04-30 18:21 | 40.44477 | -3.84951 | 14753 ft | 380 kts | 200° |
| 2026-04-30 18:21 | 40.41978 | -3.86145 | 15400 ft | 384 kts | 200° |
| 2026-04-30 18:21 | 40.39458 | -3.87352 | 16049 ft | 387 kts | 201° |
| 2026-04-30 18:21 | 40.36957 | -3.88552 | 16708 ft | 389 kts | 201° |
| 2026-04-30 18:22 | 40.34405 | -3.89774 | 17340 ft | 393 kts | 201° |
| 2026-04-30 18:22 | 40.29222 | -3.92250 | 18529 ft | 400 kts | 201° |
| 2026-04-30 18:22 | 40.26598 | -3.93503 | 19051 ft | 403 kts | 201° |
| 2026-04-30 18:23 | 40.23953 | -3.94766 | 19581 ft | 406 kts | 201° |
| 2026-04-30 18:23 | 40.21283 | -3.96040 | 20104 ft | 410 kts | 200° |
| 2026-04-30 18:23 | 40.18594 | -3.97323 | 20614 ft | 413 kts | 200° |
| 2026-04-30 18:23 | 40.15880 | -3.98615 | 21105 ft | 416 kts | 200° |
| 2026-04-30 18:24 | 40.10396 | -4.01223 | 22070 ft | 423 kts | 200° |
| 2026-04-30 18:24 | 40.07623 | -4.02540 | 22540 ft | 426 kts | 200° |
| 2026-04-30 18:24 | 40.04828 | -4.03866 | 22996 ft | 429 kts | 200° |
| 2026-04-30 18:25 | 40.02015 | -4.05200 | 23439 ft | 432 kts | 200° |
| 2026-04-30 18:25 | 39.96336 | -4.07889 | 24223 ft | 437 kts | 200° |
| 2026-04-30 18:25 | 39.93468 | -4.09245 | 24610 ft | 439 kts | 200° |
| 2026-04-30 18:26 | 39.88681 | -4.11507 | 25232 ft | 442 kts | 200° |
| 2026-04-30 18:26 | 39.85784 | -4.12873 | 25613 ft | 444 kts | 200° |
| 2026-04-30 18:26 | 39.82871 | -4.14246 | 25975 ft | 446 kts | 200° |
| 2026-04-30 18:27 | 39.77015 | -4.17003 | 26667 ft | 449 kts | 200° |
| 2026-04-30 18:27 | 39.74067 | -4.18388 | 26994 ft | 451 kts | 200° |
| 2026-04-30 18:28 | 39.68150 | -4.21165 | 27780 ft | 451 kts | 200° |
| 2026-04-30 18:28 | 39.65206 | -4.22546 | 28315 ft | 448 kts | 200° |
| 2026-04-30 18:28 | 39.59415 | -4.25256 | 29313 ft | 444 kts | 200° |
| 2026-04-30 18:29 | 39.56507 | -4.26616 | 29755 ft | 443 kts | 200° |
| 2026-04-30 18:29 | 39.47855 | -4.30654 | 31044 ft | 438 kts | 200° |
| 2026-04-30 18:30 | 39.36375 | -4.35995 | 31061 ft | 434 kts | 200° |
| 2026-04-30 18:31 | 39.27826 | -4.39961 | 31063 ft | 435 kts | 200° |
| 2026-04-30 18:32 | 39.19283 | -4.43913 | 31059 ft | 435 kts | 200° |
| 2026-04-30 18:33 | 39.10733 | -4.47859 | 31058 ft | 434 kts | 200° |
| 2026-04-30 18:33 | 39.02194 | -4.51790 | 31055 ft | 434 kts | 200° |
| 2026-04-30 18:34 | 38.93668 | -4.55627 | 31051 ft | 434 kts | 196° |
| 2026-04-30 18:35 | 38.87709 | -4.56986 | 31053 ft | 435 kts | 190° |
| 2026-04-30 18:35 | 38.81729 | -4.58177 | 31053 ft | 435 kts | 190° |
| 2026-04-30 18:36 | 38.72758 | -4.60025 | 31052 ft | 435 kts | 191° |
| 2026-04-30 18:37 | 38.63792 | -4.61896 | 31053 ft | 435 kts | 191° |
| 2026-04-30 18:37 | 38.57822 | -4.63140 | 31049 ft | 435 kts | 191° |
| 2026-04-30 18:38 | 38.51888 | -4.64374 | 31048 ft | 434 kts | 191° |
| 2026-04-30 18:38 | 38.45923 | -4.65611 | 31051 ft | 434 kts | 191° |
| 2026-04-30 18:39 | 38.39964 | -4.66846 | 31049 ft | 434 kts | 191° |
| 2026-04-30 18:39 | 38.33987 | -4.68083 | 30844 ft | 436 kts | 191° |
| 2026-04-30 18:39 | 38.30991 | -4.68701 | 30598 ft | 435 kts | 191° |
| 2026-04-30 18:40 | 38.28003 | -4.69313 | 30365 ft | 435 kts | 191° |
| 2026-04-30 18:40 | 38.25012 | -4.69922 | 30132 ft | 435 kts | 191° |
| 2026-04-30 18:40 | 38.22022 | -4.70528 | 29853 ft | 435 kts | 191° |
| 2026-04-30 18:40 | 38.19034 | -4.71133 | 28977 ft | 436 kts | 191° |
| 2026-04-30 18:41 | 38.16048 | -4.71738 | 28139 ft | 434 kts | 191° |
| 2026-04-30 18:41 | 38.13072 | -4.72341 | 27519 ft | 430 kts | 191° |
| 2026-04-30 18:41 | 38.10129 | -4.72937 | 26848 ft | 425 kts | 191° |
| 2026-04-30 18:41 | 38.07223 | -4.73525 | 26221 ft | 423 kts | 191° |
| 2026-04-30 18:42 | 38.04330 | -4.74110 | 25625 ft | 428 kts | 191° |
| 2026-04-30 18:42 | 37.98479 | -4.75293 | 24377 ft | 421 kts | 191° |
| 2026-04-30 18:42 | 37.95597 | -4.75875 | 23722 ft | 418 kts | 191° |
| 2026-04-30 18:45 | 37.68021 | -4.75389 | 19097 ft | 391 kts | 163° |
| 2026-04-30 18:45 | 37.65490 | -4.74299 | 19031 ft | 376 kts | 163° |
| 2026-04-30 18:45 | 37.63069 | -4.73267 | 19016 ft | 359 kts | 163° |
| 2026-04-30 18:46 | 37.60748 | -4.72288 | 19009 ft | 344 kts | 163° |
| 2026-04-30 18:46 | 37.58525 | -4.71357 | 19006 ft | 330 kts | 163° |
| 2026-04-30 18:46 | 37.56392 | -4.70467 | 19011 ft | 316 kts | 164° |
| 2026-04-30 18:46 | 37.54303 | -4.69922 | 19017 ft | 299 kts | 179° |
| 2026-04-30 18:47 | 37.52274 | -4.69866 | 19018 ft | 286 kts | 181° |
| 2026-04-30 18:47 | 37.50327 | -4.69836 | 19011 ft | 273 kts | 184° |
| 2026-04-30 18:47 | 37.48504 | -4.70075 | 19017 ft | 255 kts | 189° |
| 2026-04-30 18:47 | 37.46788 | -4.70389 | 19006 ft | 245 kts | 190° |
| 2026-04-30 18:48 | 37.45072 | -4.70711 | 18881 ft | 256 kts | 190° |
| 2026-04-30 18:48 | 37.43274 | -4.70962 | 18671 ft | 264 kts | 178° |
| 2026-04-30 18:48 | 37.41442 | -4.70849 | 18471 ft | 263 kts | 187° |
| 2026-04-30 18:48 | 37.39637 | -4.71165 | 18269 ft | 260 kts | 190° |
| 2026-04-30 18:49 | 37.37875 | -4.71508 | 18022 ft | 259 kts | 190° |
| 2026-04-30 18:49 | 37.36094 | -4.71858 | 17782 ft | 258 kts | 190° |
| 2026-04-30 18:49 | 37.34313 | -4.72209 | 17564 ft | 260 kts | 190° |
| 2026-04-30 18:49 | 37.32518 | -4.72566 | 17339 ft | 262 kts | 190° |
| 2026-04-30 18:50 | 37.30718 | -4.72924 | 17106 ft | 261 kts | 190° |
| 2026-04-30 18:50 | 37.28941 | -4.73377 | 16654 ft | 265 kts | 197° |
| 2026-04-30 18:50 | 37.27101 | -4.74079 | 15648 ft | 289 kts | 198° |
| 2026-04-30 18:50 | 37.25107 | -4.74823 | 14939 ft | 304 kts | 196° |
| 2026-04-30 18:51 | 37.23085 | -4.75507 | 14796 ft | 296 kts | 194° |
| 2026-04-30 18:51 | 37.21122 | -4.76115 | 14681 ft | 287 kts | 194° |
| 2026-04-30 18:51 | 37.19193 | -4.76677 | 14422 ft | 284 kts | 193° |
| 2026-04-30 18:51 | 37.17266 | -4.77216 | 14099 ft | 283 kts | 193° |
| 2026-04-30 18:52 | 37.15343 | -4.77742 | 13801 ft | 282 kts | 192° |
| 2026-04-30 18:52 | 37.13423 | -4.78259 | 13510 ft | 279 kts | 192° |
| 2026-04-30 18:52 | 37.11557 | -4.78758 | 13436 ft | 269 kts | 192° |
| 2026-04-30 18:52 | 37.09750 | -4.79240 | 13295 ft | 262 kts | 192° |
| 2026-04-30 18:53 | 37.07996 | -4.79707 | 13177 ft | 254 kts | 192° |
| 2026-04-30 18:53 | 37.06292 | -4.80129 | 13062 ft | 246 kts | 187° |
| 2026-04-30 18:53 | 37.04601 | -4.80153 | 12779 ft | 241 kts | 179° |
| 2026-04-30 18:53 | 37.02922 | -4.80095 | 12333 ft | 242 kts | 180° |
| 2026-04-30 18:54 | 37.01237 | -4.80056 | 11920 ft | 242 kts | 180° |
| 2026-04-30 18:54 | 36.99559 | -4.80025 | 11542 ft | 240 kts | 180° |
| 2026-04-30 18:54 | 36.97888 | -4.80000 | 11170 ft | 240 kts | 181° |
| 2026-04-30 18:54 | 36.96221 | -4.79980 | 10793 ft | 238 kts | 181° |
| 2026-04-30 18:55 | 36.94565 | -4.79960 | 10409 ft | 238 kts | 181° |
| 2026-04-30 18:55 | 36.91360 | -4.79211 | 9634 ft | 239 kts | 161° |
| 2026-04-30 18:55 | 36.89807 | -4.78499 | 9291 ft | 236 kts | 162° |
| 2026-04-30 18:56 | 36.86797 | -4.77057 | 8633 ft | 230 kts | 147° |
| 2026-04-30 18:56 | 36.85736 | -4.75552 | 8227 ft | 233 kts | 125° |
| 2026-04-30 18:56 | 36.84705 | -4.74023 | 7878 ft | 230 kts | 138° |
| 2026-04-30 18:57 | 36.82538 | -4.71085 | 7157 ft | 229 kts | 132° |
| 2026-04-30 18:57 | 36.81526 | -4.69644 | 7093 ft | 211 kts | 132° |
| 2026-04-30 18:57 | 36.80582 | -4.68307 | 6925 ft | 198 kts | 132° |
| 2026-04-30 18:58 | 36.78800 | -4.65796 | 6291 ft | 184 kts | 131° |
| 2026-04-30 18:58 | 36.77969 | -4.64627 | 5808 ft | 180 kts | 131° |
| 2026-04-30 18:58 | 36.77133 | -4.63445 | 5219 ft | 182 kts | 131° |
| 2026-04-30 18:59 | 36.75505 | -4.61156 | 4321 ft | 168 kts | 132° |
| 2026-04-30 19:00 | 36.73293 | -4.58046 | 2854 ft | 163 kts | 131° |
| 2026-04-30 19:00 | 36.72550 | -4.56936 | 2218 ft | 168 kts | 131° |
| 2026-04-30 19:00 | 36.70936 | -4.54696 | 969 ft | 173 kts | 134° |
| 2026-04-30 19:01 | 36.69455 | -4.52624 | 404 ft | 146 kts | 132° |
| 2026-04-30 19:01 | 36.68794 | -4.51724 | 165 ft | 137 kts | 134° |
| 2026-04-30 19:02 | 36.67726 | -4.50239 | 53 ft | 77 kts | 132° |
| 2026-04-30 19:02 | 36.67344 | -4.49686 | 47 ft | 31 kts | 120° |
| 2026-04-30 19:03 | 36.67352 | -4.49424 | 42 ft | 14 kts | 326° |
| 2026-04-30 19:03 | 36.67473 | -4.49596 | 41 ft | 13 kts | 311° |
| 2026-04-30 19:04 | 36.67579 | -4.49745 | 42 ft | 10 kts | 313° |
| 2026-04-30 19:04 | 36.67679 | -4.49878 | 42 ft | 11 kts | 313° |
| 2026-04-30 19:05 | 36.67796 | -4.49847 | 39 ft | 8 kts | 41° |
| 2026-04-30 19:05 | 36.67867 | -4.49757 | 41 ft | 3 kts | 89° |
| 2026-04-30 19:06 | 36.67833 | -4.49701 | 41 ft | 7 kts | 132° |
| 2026-04-30 19:06 | 36.67824 | -4.49689 | 41 ft | 1 kts | 132° |
| 2026-04-30 19:06 | 36.67801 | -4.49658 | 41 ft | 0 kts | 131° |